Time;durP1;ratioP1;P1;durP2;ratioP2;P2;SDS_P1;SDS_P2;PMS_P1;PMS_P2;Temp;Humidity;BMP_temperature;BMP_pressure;BME280_temperature;BME280_humidity;BME280_pressure;Samples;Min_cycle;Max_cycle;Signal;HPM_P1;HPM_P2
2022/10/25 00:01:08;;;;;;;14.95;5.72;;;12.30;99.90;;;;;;5035138;28;20213;-63
2022/10/25 00:03:34;;;;;;;10.00;5.03;;;12.30;99.90;;;;;;5035098;28;20277;-62
2022/10/25 00:05:59;;;;;;;14.85;5.03;;;12.30;99.90;;;;;;5033605;28;20214;-62
2022/10/25 00:08:25;;;;;;;18.58;5.70;;;12.30;99.90;;;;;;5035230;28;20213;-62
2022/10/25 00:10:51;;;;;;;11.13;5.03;;;12.30;99.90;;;;;;5034954;28;20261;-62
2022/10/25 00:13:16;;;;;;;15.47;5.53;;;12.40;99.90;;;;;;5034940;28;20175;-62
2022/10/25 00:15:42;;;;;;;12.52;5.60;;;12.40;99.90;;;;;;5033400;28;20215;-62
2022/10/25 00:18:08;;;;;;;12.43;4.95;;;12.40;99.90;;;;;;5034835;28;20230;-62
2022/10/25 00:20:36;;;;;;;14.85;4.97;;;12.40;99.90;;;;;;5035423;28;20179;-62
2022/10/25 00:23:01;;;;;;;14.63;5.60;;;12.40;99.90;;;;;;5035706;28;20186;-62
2022/10/25 00:25:27;;;;;;;20.05;5.25;;;12.40;99.90;;;;;;5034977;28;20195;-62
2022/10/25 00:27:53;;;;;;;14.95;5.30;;;12.40;99.90;;;;;;5034390;28;20592;-63
2022/10/25 00:30:18;;;;;;;16.20;5.10;;;12.50;99.90;;;;;;5034827;28;20208;-62
2022/10/25 00:32:44;;;;;;;14.45;4.95;;;12.50;99.90;;;;;;5034477;28;20167;-62
2022/10/25 00:35:10;;;;;;;15.37;5.73;;;12.50;99.90;;;;;;5034401;28;20663;-66
2022/10/25 00:37:36;;;;;;;17.52;5.50;;;12.50;99.90;;;;;;5034505;28;20683;-62
2022/10/25 00:40:03;;;;;;;13.20;5.38;;;12.50;99.90;;;;;;5034533;28;20175;-62
2022/10/25 00:42:29;;;;;;;16.48;5.45;;;12.50;99.90;;;;;;5034307;28;20238;-62
2022/10/25 00:44:56;;;;;;;11.45;5.47;;;12.60;99.90;;;;;;5034208;28;20211;-62
2022/10/25 00:47:36;;;;;;;15.68;5.03;;;12.60;99.90;;;;;;5034084;28;20171;-62
2022/10/25 00:50:04;;;;;;;10.50;4.82;;;12.60;99.90;;;;;;5034451;28;20159;-62
2022/10/25 00:52:34;;;;;;;14.90;5.60;;;12.70;99.90;;;;;;5032696;28;20190;-62
2022/10/25 00:55:04;;;;;;;17.63;6.32;;;12.70;99.90;;;;;;5034302;28;20222;-62
2022/10/25 00:57:45;;;;;;;17.55;5.47;;;12.70;99.90;;;;;;5034252;28;20193;-62
2022/10/25 01:00:12;;;;;;;16.73;6.72;;;12.70;99.90;;;;;;5034331;28;20171;-62
2022/10/25 01:02:38;;;;;;;23.05;6.32;;;12.70;99.90;;;;;;5034134;28;20179;-63
2022/10/25 01:05:04;;;;;;;10.80;4.93;;;12.70;99.90;;;;;;5033843;28;20217;-62
2022/10/25 01:07:30;;;;;;;15.00;5.45;;;12.80;99.90;;;;;;5032427;28;20182;-62
2022/10/25 01:09:56;;;;;;;13.32;5.93;;;12.80;99.90;;;;;;5033965;28;20159;-62
2022/10/25 01:12:22;;;;;;;22.23;5.72;;;12.90;99.90;;;;;;5033781;28;20186;-62
2022/10/25 01:14:50;;;;;;;19.08;5.25;;;12.80;99.90;;;;;;5032997;28;20207;-62
2022/10/25 01:17:32;;;;;;;11.13;6.05;;;12.90;99.90;;;;;;5033650;28;20203;-62
2022/10/25 01:20:24;;;;;;;14.40;5.53;;;12.90;99.90;;;;;;5033640;28;20171;-62
2022/10/25 01:22:59;;;;;;;12.70;5.55;;;12.80;99.90;;;;;;5033497;28;20228;-62
2022/10/25 01:25:40;;;;;;;19.90;5.78;;;12.90;99.90;;;;;;5033777;28;20619;-62
2022/10/25 01:28:16;;;;;;;10.98;4.82;;;13.00;99.90;;;;;;5033535;28;20191;-62
2022/10/25 01:31:05;;;;;;;11.18;4.65;;;13.10;99.90;;;;;;5033542;28;20282;-62
2022/10/25 01:33:44;;;;;;;8.00;4.20;;;13.20;99.90;;;;;;5033696;28;20194;-63
2022/10/25 01:36:20;;;;;;;11.00;4.78;;;13.20;99.90;;;;;;5033503;28;20163;-63
2022/10/25 01:39:04;;;;;;;8.00;4.20;;;13.20;99.90;;;;;;5033496;28;20612;-62
2022/10/25 01:41:51;;;;;;;8.23;4.20;;;13.30;99.90;;;;;;5032132;28;20254;-63
2022/10/25 01:44:38;;;;;;;14.55;4.70;;;13.20;99.90;;;;;;5033639;28;20214;-67
2022/10/25 01:47:19;;;;;;;12.05;4.30;;;13.20;99.90;;;;;;5033913;28;20166;-67
2022/10/25 01:50:00;;;;;;;10.73;4.32;;;13.20;99.90;;;;;;5033403;28;20243;-66
2022/10/25 01:52:27;;;;;;;10.63;4.40;;;13.30;99.90;;;;;;5033109;28;20538;-67
2022/10/25 01:54:52;;;;;;;11.85;4.00;;;13.30;99.90;;;;;;5031947;28;20202;-67
2022/10/25 01:57:35;;;;;;;12.15;4.32;;;13.30;99.90;;;;;;5032008;28;20194;-67
2022/10/25 02:00:11;;;;;;;11.45;4.05;;;13.30;99.90;;;;;;5032193;28;20170;-67
2022/10/25 02:02:48;;;;;;;9.85;3.95;;;13.40;99.90;;;;;;5033853;28;20557;-67
2022/10/25 02:05:17;;;;;;;8.82;3.95;;;13.30;99.90;;;;;;5033279;28;20277;-67
2022/10/25 02:07:46;;;;;;;11.23;4.50;;;13.40;99.90;;;;;;5033092;28;20229;-67
2022/10/25 02:10:28;;;;;;;6.30;3.60;;;13.30;99.90;;;;;;5031895;28;20190;-67
2022/10/25 02:13:51;;;;;;;10.13;3.78;;;13.40;99.90;;;;;;5031972;28;20535;-66
2022/10/25 02:16:43;;;;;;;9.60;3.72;;;13.40;99.90;;;;;;5031270;28;20617;-67
2022/10/25 02:19:12;;;;;;;11.02;4.05;;;13.30;99.90;;;;;;5020860;28;20209;-67
2022/10/25 02:21:40;;;;;;;15.07;3.95;;;13.30;99.90;;;;;;5032208;28;20660;-67
2022/10/25 02:24:14;;;;;;;7.60;3.65;;;13.30;99.90;;;;;;5033204;28;20687;-67
2022/10/25 02:26:42;;;;;;;10.07;4.07;;;13.40;99.90;;;;;;5034814;28;20225;-67
2022/10/25 02:29:09;;;;;;;10.15;4.30;;;13.40;99.90;;;;;;5036951;28;20660;-66
2022/10/25 02:31:36;;;;;;;11.43;3.72;;;13.40;99.90;;;;;;5037147;28;20178;-68
2022/10/25 02:34:03;;;;;;;13.98;3.83;;;13.50;99.90;;;;;;5036852;28;20224;-67
2022/10/25 02:36:29;;;;;;;6.75;3.60;;;13.50;99.90;;;;;;5037005;28;20189;-67
2022/10/25 02:38:56;;;;;;;11.85;3.70;;;13.40;99.90;;;;;;5036721;28;20178;-66
2022/10/25 02:41:22;;;;;;;8.23;4.00;;;13.40;99.90;;;;;;5036744;28;20180;-67
2022/10/25 02:43:48;;;;;;;8.50;4.05;;;13.50;99.90;;;;;;5036633;28;20268;-67
2022/10/25 02:46:17;;;;;;;6.45;3.50;;;13.50;99.90;;;;;;5036468;28;20176;-67
2022/10/25 02:48:44;;;;;;;10.55;3.78;;;13.50;99.90;;;;;;5036553;28;20237;-67
2022/10/25 02:51:11;;;;;;;10.52;3.60;;;13.50;99.90;;;;;;5035517;28;20171;-67
2022/10/25 02:53:37;;;;;;;6.97;3.88;;;13.40;99.90;;;;;;5036298;28;20195;-67
2022/10/25 02:56:12;;;;;;;8.40;3.88;;;13.40;99.90;;;;;;5036983;28;20229;-67
2022/10/25 02:58:39;;;;;;;11.15;3.72;;;13.50;99.90;;;;;;5035209;28;20181;-67
2022/10/25 03:01:06;;;;;;;10.20;3.42;;;13.50;99.90;;;;;;5036354;28;20516;-68
2022/10/25 03:03:32;;;;;;;6.88;3.80;;;13.50;99.90;;;;;;5034765;28;20207;-67
2022/10/25 03:05:57;;;;;;;8.63;3.65;;;13.50;99.90;;;;;;5036358;28;20170;-67
2022/10/25 03:08:23;;;;;;;11.02;3.88;;;13.60;99.90;;;;;;5036761;28;20191;-67
2022/10/25 03:10:50;;;;;;;8.02;3.50;;;13.60;99.90;;;;;;5036845;28;20264;-67
2022/10/25 03:13:15;;;;;;;11.32;4.20;;;13.60;99.90;;;;;;5036109;28;20174;-67
2022/10/25 03:15:43;;;;;;;7.57;3.35;;;13.60;99.90;;;;;;5036089;28;20195;-67
2022/10/25 03:18:10;;;;;;;7.15;3.75;;;13.60;99.90;;;;;;5035996;28;20187;-67
2022/10/25 03:20:35;;;;;;;9.35;3.55;;;13.60;99.90;;;;;;5035856;28;20178;-67
2022/10/25 03:23:01;;;;;;;8.75;3.60;;;13.50;99.90;;;;;;5035803;28;20175;-67
2022/10/25 03:25:27;;;;;;;11.43;3.65;;;13.50;99.90;;;;;;5035870;28;20191;-66
2022/10/25 03:27:52;;;;;;;9.10;3.70;;;13.60;99.90;;;;;;5035901;28;20190;-67
2022/10/25 03:30:18;;;;;;;11.98;3.78;;;13.60;99.90;;;;;;5035762;28;20648;-67
2022/10/25 03:32:44;;;;;;;8.55;3.72;;;13.50;99.90;;;;;;5036220;28;20175;-67
2022/10/25 03:35:10;;;;;;;11.68;3.70;;;13.50;99.90;;;;;;5035761;28;20199;-67
2022/10/25 03:37:36;;;;;;;9.73;3.50;;;13.50;99.90;;;;;;5034948;28;20181;-67
2022/10/25 03:40:01;;;;;;;8.40;3.45;;;13.50;99.90;;;;;;5036224;28;20178;-67
2022/10/25 03:42:27;;;;;;;11.88;3.80;;;13.50;99.90;;;;;;5035580;28;20258;-67
2022/10/25 03:44:53;;;;;;;8.38;3.53;;;13.40;99.90;;;;;;5035566;28;20203;-67
2022/10/25 03:47:18;;;;;;;9.93;3.45;;;13.50;99.90;;;;;;5035473;28;20230;-67
2022/10/25 03:49:44;;;;;;;11.60;3.60;;;13.40;99.90;;;;;;5034168;28;20175;-67
2022/10/25 03:52:10;;;;;;;9.20;3.42;;;13.50;99.90;;;;;;5035256;28;20171;-67
2022/10/25 03:54:36;;;;;;;9.95;3.72;;;13.50;99.90;;;;;;5035320;28;20199;-67
2022/10/25 03:57:02;;;;;;;9.70;3.85;;;13.50;99.90;;;;;;5035832;28;20250;-67
2022/10/25 03:59:28;;;;;;;13.25;3.80;;;13.50;99.90;;;;;;5035518;28;20266;-71
2022/10/25 04:01:54;;;;;;;8.45;3.63;;;13.50;99.90;;;;;;5035318;28;20213;-67
2022/10/25 04:04:20;;;;;;;8.35;3.47;;;13.50;99.90;;;;;;5034994;28;20699;-67
2022/10/25 04:06:45;;;;;;;10.10;3.60;;;13.50;99.90;;;;;;5035062;28;20197;-67
2022/10/25 04:09:11;;;;;;;11.38;4.07;;;13.40;99.90;;;;;;5035652;28;20168;-67
2022/10/25 04:11:37;;;;;;;7.97;4.10;;;13.40;99.90;;;;;;5033850;28;20198;-67
2022/10/25 04:14:03;;;;;;;8.95;3.88;;;13.40;99.90;;;;;;5034118;28;20282;-67
2022/10/25 04:16:29;;;;;;;9.32;3.97;;;13.40;99.90;;;;;;5035021;28;20656;-67
2022/10/25 04:18:56;;;;;;;11.75;3.95;;;13.30;99.90;;;;;;5035056;28;20174;-67
2022/10/25 04:21:22;;;;;;;9.57;4.10;;;13.30;99.90;;;;;;5034958;28;20167;-67
2022/10/25 04:23:49;;;;;;;5.65;3.85;;;13.30;99.90;;;;;;5034676;28;20286;-67
2022/10/25 04:26:19;;;;;;;9.38;4.10;;;13.20;99.90;;;;;;5034667;28;20186;-67
2022/10/25 04:28:53;;;;;;;9.63;3.72;;;13.20;99.90;;;;;;5033348;28;20281;-67
2022/10/25 04:31:20;;;;;;;9.98;3.95;;;13.20;99.90;;;;;;5035029;28;20240;-67
2022/10/25 04:33:53;;;;;;;9.25;4.22;;;13.20;99.90;;;;;;5034620;28;20298;-67
2022/10/25 04:36:20;;;;;;;9.95;4.22;;;13.10;99.90;;;;;;5034717;28;20179;-67
2022/10/25 04:38:51;;;;;;;11.55;4.20;;;13.20;99.90;;;;;;5034579;28;20175;-67
2022/10/25 04:41:17;;;;;;;14.00;4.57;;;13.20;99.90;;;;;;5034601;28;20155;-67
2022/10/25 04:43:43;;;;;;;11.13;4.93;;;13.20;99.90;;;;;;5034743;28;20554;-67
2022/10/25 04:46:09;;;;;;;9.15;5.10;;;13.20;99.90;;;;;;5034326;28;20179;-67
2022/10/25 04:48:39;;;;;;;10.25;4.65;;;13.20;99.90;;;;;;5034080;28;20179;-67
2022/10/25 04:51:05;;;;;;;11.48;5.13;;;13.20;99.90;;;;;;5032452;28;20175;-67
2022/10/25 04:53:31;;;;;;;9.63;4.20;;;13.20;99.90;;;;;;5032788;28;20181;-67
2022/10/25 04:56:05;;;;;;;10.20;4.82;;;13.20;99.90;;;;;;5034204;28;20183;-67
2022/10/25 04:58:31;;;;;;;9.60;5.05;;;13.20;99.90;;;;;;5032933;28;20209;-67
2022/10/25 05:01:04;;;;;;;12.98;5.18;;;13.20;99.90;;;;;;5033925;28;20242;-67
2022/10/25 05:03:30;;;;;;;10.95;4.82;;;13.30;99.90;;;;;;5032803;28;20699;-67
2022/10/25 05:06:05;;;;;;;11.25;4.53;;;13.30;99.90;;;;;;5034067;28;20168;-67
2022/10/25 05:08:31;;;;;;;7.45;4.38;;;13.30;99.90;;;;;;5033961;28;20163;-67
2022/10/25 05:10:56;;;;;;;9.02;4.60;;;13.40;99.90;;;;;;5033915;28;20175;-67
2022/10/25 05:13:22;;;;;;;15.50;5.20;;;13.40;99.90;;;;;;5033805;28;20179;-67
2022/10/25 05:15:55;;;;;;;11.02;4.93;;;13.50;99.90;;;;;;5033699;28;20622;-67
2022/10/25 05:18:20;;;;;;;9.15;4.88;;;13.40;99.90;;;;;;5032395;28;20187;-67
2022/10/25 05:20:58;;;;;;;11.15;5.10;;;13.50;99.90;;;;;;5033772;28;20245;-66
2022/10/25 05:23:25;;;;;;;10.32;4.90;;;13.50;99.90;;;;;;5034236;28;20218;-68
2022/10/25 05:26:18;;;;;;;14.95;5.22;;;13.40;99.90;;;;;;5033697;28;20164;-68
2022/10/25 05:28:46;;;;;;;14.23;5.05;;;13.40;99.90;;;;;;5033495;28;20190;-68
2022/10/25 05:31:14;;;;;;;10.48;4.90;;;13.40;99.90;;;;;;5033563;28;20163;-68
2022/10/25 05:33:40;;;;;;;10.85;5.13;;;13.40;99.90;;;;;;5033423;28;20175;-68
2022/10/25 05:36:06;;;;;;;10.25;4.70;;;13.50;99.90;;;;;;5033728;28;20160;-68
2022/10/25 05:38:32;;;;;;;13.73;4.60;;;13.50;99.90;;;;;;5033543;28;20665;-68
2022/10/25 05:40:59;;;;;;;12.10;4.60;;;13.50;99.90;;;;;;5033521;28;20186;-68
2022/10/25 05:43:26;;;;;;;15.27;4.97;;;13.40;99.90;;;;;;5033523;28;20198;-68
2022/10/25 05:46:01;;;;;;;11.70;4.53;;;13.40;99.90;;;;;;5033325;28;20262;-68
2022/10/25 05:48:27;;;;;;;12.23;4.45;;;13.40;99.90;;;;;;5033327;28;20257;-68
2022/10/25 05:50:53;;;;;;;14.35;4.20;;;13.50;99.90;;;;;;5033130;28;20198;-68
2022/10/25 05:53:18;;;;;;;11.73;4.53;;;13.50;99.90;;;;;;5033508;28;20182;-68
2022/10/25 05:55:44;;;;;;;8.73;4.13;;;13.40;99.90;;;;;;5033601;28;20194;-73
2022/10/25 05:58:10;;;;;;;9.35;4.22;;;13.50;99.90;;;;;;5033275;28;20175;-68
2022/10/25 06:00:36;;;;;;;8.32;4.07;;;13.50;99.90;;;;;;5034308;28;20175;-68
2022/10/25 06:03:02;;;;;;;11.93;4.40;;;13.50;99.90;;;;;;5036275;28;20707;-68
2022/10/25 06:05:27;;;;;;;10.73;4.45;;;13.50;99.90;;;;;;5037575;28;20191;-68
2022/10/25 06:07:53;;;;;;;11.07;4.47;;;13.60;99.90;;;;;;5035847;28;20175;-68
2022/10/25 06:10:19;;;;;;;12.07;5.43;;;13.60;99.90;;;;;;5037362;28;20183;-67
2022/10/25 06:12:45;;;;;;;9.68;4.00;;;13.60;99.90;;;;;;5037815;28;20171;-68
2022/10/25 06:15:11;;;;;;;8.77;4.72;;;13.60;99.90;;;;;;5037167;28;20226;-68
2022/10/25 06:17:36;;;;;;;9.80;4.85;;;13.60;99.90;;;;;;5037621;28;20254;-67
2022/10/25 06:20:02;;;;;;;8.18;4.50;;;13.60;99.90;;;;;;5037469;28;20518;-67
2022/10/25 06:22:28;;;;;;;11.30;4.63;;;13.50;99.90;;;;;;5036999;28;20183;-68
2022/10/25 06:24:53;;;;;;;7.57;4.53;;;13.50;99.90;;;;;;5035564;28;20268;-68
2022/10/25 06:27:20;;;;;;;10.82;4.82;;;13.50;99.90;;;;;;5037439;28;20159;-67
2022/10/25 06:29:45;;;;;;;7.53;4.82;;;13.50;99.90;;;;;;5036894;28;20612;-67
2022/10/25 06:32:11;;;;;;;11.52;5.18;;;13.50;99.90;;;;;;5037066;28;20221;-67
2022/10/25 06:34:37;;;;;;;11.23;4.68;;;13.50;99.90;;;;;;5037081;28;20199;-68
2022/10/25 06:37:03;;;;;;;14.10;5.00;;;13.50;99.90;;;;;;5035339;28;20179;-67
2022/10/25 06:39:28;;;;;;;10.45;5.13;;;13.50;99.90;;;;;;5036675;28;20228;-66
2022/10/25 06:41:54;;;;;;;10.25;5.00;;;13.50;99.90;;;;;;5036744;28;20179;-68
2022/10/25 06:44:20;;;;;;;13.10;5.15;;;13.50;99.90;;;;;;5035146;28;20213;-68
2022/10/25 06:46:45;;;;;;;8.95;4.70;;;13.50;99.90;;;;;;5035296;28;20179;-67
2022/10/25 06:49:11;;;;;;;7.60;4.60;;;13.60;99.90;;;;;;5035251;28;20186;-67
2022/10/25 06:51:37;;;;;;;8.80;4.68;;;13.70;99.90;;;;;;5036503;28;20258;-68
2022/10/25 06:54:08;;;;;;;9.18;4.00;;;13.70;99.90;;;;;;5036378;28;20199;-68
2022/10/25 06:56:35;;;;;;;12.25;4.78;;;13.60;99.90;;;;;;5036633;28;20168;-68
2022/10/25 06:59:01;;;;;;;7.03;4.25;;;13.60;99.90;;;;;;5036365;28;20210;-68
2022/10/25 07:01:27;;;;;;;10.85;4.60;;;13.60;99.90;;;;;;5036305;28;20171;-67
2022/10/25 07:03:54;;;;;;;10.82;3.65;;;13.60;99.90;;;;;;5036060;28;20213;-68
2022/10/25 07:06:28;;;;;;;6.40;3.83;;;13.60;99.90;;;;;;5036053;28;20171;-68
2022/10/25 07:08:57;;;;;;;11.23;4.55;;;13.60;99.90;;;;;;5036463;28;20590;-68
2022/10/25 07:11:24;;;;;;;9.50;4.30;;;13.60;99.90;;;;;;5035787;28;20167;-68
2022/10/25 07:13:51;;;;;;;6.80;4.18;;;13.60;99.90;;;;;;5035235;28;20202;-68
2022/10/25 07:16:19;;;;;;;14.15;5.38;;;13.60;99.90;;;;;;5036318;28;20202;-67
2022/10/25 07:18:45;;;;;;;9.63;4.78;;;13.50;99.90;;;;;;5036471;28;20648;-68
2022/10/25 07:21:12;;;;;;;10.88;4.78;;;13.60;99.90;;;;;;5036175;28;20221;-64
2022/10/25 07:23:41;;;;;;;13.65;5.05;;;13.50;99.90;;;;;;5035805;28;20226;-64
2022/10/25 07:26:14;;;;;;;9.35;4.97;;;13.50;99.90;;;;;;5036497;28;20481;-64
2022/10/25 07:28:42;;;;;;;9.30;5.30;;;13.50;99.90;;;;;;5035695;28;20194;-64
2022/10/25 07:31:12;;;;;;;12.68;5.25;;;13.50;99.90;;;;;;5036167;28;20526;-64
2022/10/25 07:33:37;;;;;;;11.25;5.22;;;13.60;99.90;;;;;;5035599;28;20171;-64
2022/10/25 07:36:03;;;;;;;10.02;5.10;;;13.60;99.90;;;;;;5036009;28;20178;-64
2022/10/25 07:38:29;;;;;;;9.70;5.00;;;13.60;99.90;;;;;;5035564;28;20206;-64
2022/10/25 07:40:58;;;;;;;10.18;5.13;;;13.70;99.90;;;;;;5035773;28;20554;-64
2022/10/25 07:43:27;;;;;;;14.93;5.60;;;13.70;99.90;;;;;;5035900;28;20306;-64
2022/10/25 07:45:54;;;;;;;13.25;5.57;;;13.70;99.90;;;;;;5035408;28;20167;-64
2022/10/25 07:48:20;;;;;;;12.43;5.65;;;13.70;99.90;;;;;;5035306;28;20289;-64
2022/10/25 07:50:46;;;;;;;9.40;5.78;;;13.70;99.90;;;;;;5035306;28;20178;-64
2022/10/25 07:53:12;;;;;;;11.85;5.60;;;13.80;99.90;;;;;;5035152;28;20180;-64
2022/10/25 07:55:38;;;;;;;12.48;5.97;;;13.80;99.90;;;;;;5035195;28;20270;-63
2022/10/25 07:58:06;;;;;;;10.68;5.40;;;13.80;99.90;;;;;;5035159;28;20632;-64
2022/10/25 08:00:34;;;;;;;8.45;5.30;;;13.80;99.90;;;;;;5035348;28;20655;-64
2022/10/25 08:02:59;;;;;;;15.75;5.47;;;13.90;99.90;;;;;;5033838;28;20187;-64
2022/10/25 08:05:25;;;;;;;11.50;5.57;;;13.90;99.90;;;;;;5033633;28;20599;-64
2022/10/25 08:07:51;;;;;;;12.35;5.90;;;13.90;99.90;;;;;;5034868;28;20532;-64
2022/10/25 08:10:19;;;;;;;11.20;5.30;;;13.90;99.90;;;;;;5034978;28;20171;-63
2022/10/25 08:12:46;;;;;;;7.82;4.70;;;13.90;99.90;;;;;;5033610;28;20179;-63
2022/10/25 08:15:12;;;;;;;13.30;5.45;;;14.00;99.90;;;;;;5034797;28;20195;-64
2022/10/25 08:17:38;;;;;;;9.70;4.80;;;14.00;99.90;;;;;;5033484;28;20273;-64
2022/10/25 08:20:04;;;;;;;11.25;4.78;;;14.00;99.90;;;;;;5035211;28;20179;-64
2022/10/25 08:22:29;;;;;;;13.88;5.07;;;14.00;99.90;;;;;;5033254;28;20190;-64
2022/10/25 08:24:55;;;;;;;12.95;5.15;;;14.00;99.90;;;;;;5034571;28;20214;-64
2022/10/25 08:27:21;;;;;;;10.20;5.13;;;14.00;99.90;;;;;;5034503;28;20171;-64
2022/10/25 08:29:46;;;;;;;9.65;4.40;;;14.00;99.90;;;;;;5034600;28;20168;-64
2022/10/25 08:32:13;;;;;;;9.77;5.20;;;14.10;99.90;;;;;;5035027;28;20178;-64
2022/10/25 08:34:39;;;;;;;13.98;5.35;;;14.10;99.90;;;;;;5033366;28;20543;-63
2022/10/25 08:37:04;;;;;;;17.25;4.93;;;14.20;99.90;;;;;;5034462;28;20175;-63
2022/10/25 08:39:30;;;;;;;11.98;5.15;;;14.20;99.90;;;;;;5033053;28;20663;-64
2022/10/25 08:42:00;;;;;;;11.27;4.95;;;14.20;99.90;;;;;;5034395;28;20163;-64
2022/10/25 08:45:07;;;;;;;9.90;4.75;;;14.20;99.90;;;;;;5034203;28;20264;-64
2022/10/25 08:47:44;;;;;;;9.38;4.55;;;14.20;99.90;;;;;;5032231;28;20187;-64
2022/10/25 08:50:10;;;;;;;15.80;4.90;;;14.30;99.90;;;;;;5034248;28;20183;-64
2022/10/25 08:52:44;;;;;;;11.43;4.72;;;14.40;99.90;;;;;;5034082;28;20318;-64
2022/10/25 08:55:37;;;;;;;8.93;4.47;;;14.50;99.90;;;;;;5034626;28;20202;-64
2022/10/25 08:58:11;;;;;;;11.93;4.25;;;14.70;99.90;;;;;;5029659;28;20225;-64
2022/10/25 09:00:39;;;;;;;9.43;4.28;;;14.70;99.90;;;;;;5034021;28;20166;-63
2022/10/25 09:03:16;;;;;;;9.77;4.10;;;14.80;99.90;;;;;;5033921;28;20171;-64
2022/10/25 09:06:11;;;;;;;10.82;4.45;;;14.80;99.90;;;;;;5034275;28;20187;-64
2022/10/25 09:08:37;;;;;;;10.20;4.20;;;14.80;99.90;;;;;;5034459;28;20172;-64
2022/10/25 09:11:05;;;;;;;11.77;4.53;;;15.00;99.90;;;;;;5034173;28;20179;-64
2022/10/25 09:13:53;;;;;;;6.43;3.95;;;15.00;99.90;;;;;;5033707;28;20524;-64
2022/10/25 09:16:28;;;;;;;9.35;4.32;;;15.10;99.90;;;;;;5034187;28;20174;-64
2022/10/25 09:18:56;;;;;;;5.72;3.78;;;15.10;99.90;;;;;;5033703;28;20273;-64
2022/10/25 09:21:40;;;;;;;6.18;4.22;;;15.20;99.90;;;;;;5033699;28;20750;-64
2022/10/25 09:24:23;;;;;;;8.98;4.13;;;15.40;99.90;;;;;;5033459;28;20289;-64
2022/10/25 09:26:49;;;;;;;7.30;3.70;;;15.50;99.90;;;;;;5032459;28;20175;-64
2022/10/25 09:29:23;;;;;;;7.80;4.05;;;15.50;99.90;;;;;;5033936;28;20205;-64
2022/10/25 09:31:54;;;;;;;8.35;4.00;;;15.50;99.90;;;;;;5034214;28;20301;-64
2022/10/25 09:34:22;;;;;;;5.10;3.55;;;15.50;99.90;;;;;;5032185;28;20205;-64
2022/10/25 09:36:54;;;;;;;10.50;3.47;;;15.60;99.90;;;;;;5032722;28;20175;-64
2022/10/25 09:39:30;;;;;;;8.13;4.13;;;15.60;99.90;;;;;;5033792;28;20171;-64
2022/10/25 09:41:58;;;;;;;10.80;4.22;;;15.60;99.90;;;;;;5033452;28;20616;-64
2022/10/25 09:44:33;;;;;;;8.40;3.88;;;15.70;99.90;;;;;;5033287;28;20717;-64
2022/10/25 09:47:27;;;;;;;7.38;4.30;;;15.70;99.90;;;;;;5033365;28;20259;-64
2022/10/25 09:50:01;;;;;;;7.15;3.92;;;15.70;99.90;;;;;;5033312;28;20175;-64
2022/10/25 09:52:53;;;;;;;3.92;3.25;;;15.70;99.90;;;;;;5033343;28;20151;-64
2022/10/25 09:55:28;;;;;;;5.57;3.38;;;15.60;99.90;;;;;;5033459;28;20206;-64
2022/10/25 09:57:54;;;;;;;6.50;3.78;;;15.70;99.90;;;;;;5033635;28;20221;-64
2022/10/25 10:00:20;;;;;;;6.55;3.45;;;15.70;99.90;;;;;;5033701;28;20175;-64
2022/10/25 10:02:46;;;;;;;8.15;3.78;;;15.60;99.90;;;;;;5033270;28;20179;-64
2022/10/25 10:05:17;;;;;;;9.05;3.40;;;15.60;99.90;;;;;;5033326;28;20202;-68
2022/10/25 10:07:44;;;;;;;9.55;3.63;;;15.50;99.90;;;;;;5033577;28;20277;-68
2022/10/25 10:10:29;;;;;;;8.50;3.60;;;15.50;99.90;;;;;;5033549;28;20174;-68
2022/10/25 10:13:20;;;;;;;6.07;3.75;;;15.50;99.90;;;;;;5032464;28;20175;-68
2022/10/25 10:15:56;;;;;;;5.20;3.83;;;15.50;99.90;;;;;;5015133;28;20222;-67
2022/10/25 10:18:25;;;;;;;6.50;3.85;;;15.60;99.90;;;;;;5033202;28;20187;-67
2022/10/25 10:21:12;;;;;;;5.40;3.92;;;15.60;99.90;;;;;;5033061;28;20256;-67
2022/10/25 10:23:46;;;;;;;11.95;4.28;;;15.70;99.90;;;;;;5032856;28;20202;-68
2022/10/25 10:26:27;;;;;;;8.57;3.80;;;15.80;99.90;;;;;;5033190;28;20190;-67
2022/10/25 10:29:13;;;;;;;7.57;4.07;;;15.90;99.90;;;;;;5032884;28;20660;-67
2022/10/25 10:31:42;;;;;;;5.60;3.80;;;15.90;99.90;;;;;;5033044;28;20156;-67
2022/10/25 10:34:23;;;;;;;9.65;3.58;;;15.80;99.90;;;;;;5032873;28;20607;-67
2022/10/25 10:37:13;;;;;;;10.13;4.40;;;15.60;99.90;;;;;;5032852;28;20187;-67
2022/10/25 10:39:54;;;;;;;8.23;3.83;;;15.50;99.90;;;;;;5027829;28;20195;-67
2022/10/25 10:42:43;;;;;;;13.02;4.30;;;15.50;99.90;;;;;;5032851;28;20174;-67
2022/10/25 10:45:16;;;;;;;7.50;4.00;;;15.40;99.90;;;;;;5032521;28;20284;-67
2022/10/25 10:47:48;;;;;;;7.47;3.90;;;15.30;99.90;;;;;;5035975;28;20258;-67
2022/10/25 10:50:25;;;;;;;8.68;3.97;;;15.30;99.90;;;;;;5036949;28;20159;-67
2022/10/25 10:53:05;;;;;;;7.30;4.18;;;15.40;99.90;;;;;;5036599;28;20183;-69
2022/10/25 10:55:46;;;;;;;6.57;4.00;;;15.60;99.90;;;;;;5036642;28;20671;-68
2022/10/25 10:58:16;;;;;;;7.38;3.85;;;15.90;99.90;;;;;;5036983;28;20174;-70
2022/10/25 11:00:55;;;;;;;6.75;4.00;;;16.10;99.90;;;;;;5037057;28;20576;-70
2022/10/25 11:03:34;;;;;;;9.02;3.67;;;16.00;99.90;;;;;;5037019;28;20198;-68
2022/10/25 11:06:00;;;;;;;10.25;3.85;;;15.80;99.90;;;;;;5036379;28;20179;-67
2022/10/25 11:08:25;;;;;;;10.05;3.45;;;15.80;99.90;;;;;;5036150;28;20632;-65
2022/10/25 11:11:10;;;;;;;6.65;3.00;;;15.90;99.90;;;;;;5036153;28;20175;-64
2022/10/25 11:13:36;;;;;;;6.28;3.33;;;16.10;99.90;;;;;;5036269;28;20254;-65
2022/10/25 11:16:28;;;;;;;4.75;3.40;;;16.40;99.90;;;;;;5036090;28;20235;-66
2022/10/25 11:19:02;;;;;;;5.53;3.83;;;16.40;99.90;;;;;;5036080;28;20201;-64
2022/10/25 11:21:31;;;;;;;10.90;3.90;;;16.60;99.90;;;;;;5035828;28;20225;-64
2022/10/25 11:24:00;;;;;;;8.82;3.38;;;16.70;99.90;;;;;;5036046;28;20202;-64
2022/10/25 11:26:49;;;;;;;5.57;3.50;;;16.80;99.90;;;;;;5034597;28;20644;-64
2022/10/25 11:29:27;;;;;;;6.47;4.03;;;16.80;99.90;;;;;;5034478;28;20191;-64
2022/10/25 11:32:24;;;;;;;6.90;3.83;;;16.60;99.90;;;;;;5036520;28;20543;-64
2022/10/25 11:35:01;;;;;;;5.45;4.20;;;16.70;99.90;;;;;;5035633;28;20233;-64
2022/10/25 11:37:27;;;;;;;5.32;3.80;;;17.10;99.90;;;;;;5035682;28;20246;-65
2022/10/25 11:39:58;;;;;;;6.05;3.20;;;17.30;99.90;;;;;;5035548;28;20217;-64
2022/10/25 11:42:45;;;;;;;8.00;3.83;;;17.60;99.90;;;;;;5034360;28;20619;-64
2022/10/25 11:45:41;;;;;;;5.65;3.00;;;17.50;99.90;;;;;;5035608;28;20207;-63
2022/10/25 11:48:15;;;;;;;7.00;3.33;;;17.30;99.90;;;;;;5035421;28;20179;-65
2022/10/25 11:51:19;;;;;;;4.28;3.10;;;17.10;99.90;;;;;;5035453;28;20163;-63
2022/10/25 11:54:08;;;;;;;8.07;3.78;;;16.90;99.90;;;;;;5014150;28;20217;-63
2022/10/25 11:56:58;;;;;;;5.18;3.38;;;16.70;99.90;;;;;;5035421;28;20163;-64
2022/10/25 12:00:05;;;;;;;4.80;3.38;;;16.70;99.90;;;;;;5034828;28;20699;-66
2022/10/25 12:03:01;;;;;;;6.60;3.28;;;16.70;99.90;;;;;;5035286;28;20681;-64
2022/10/25 12:05:45;;;;;;;12.45;3.58;;;17.10;99.90;;;;;;5035012;28;20202;-64
2022/10/25 12:08:34;;;;;;;6.65;3.20;;;17.40;99.90;;;;;;5034977;28;20156;-64
2022/10/25 12:11:06;;;;;;;7.05;3.45;;;17.80;99.90;;;;;;5035059;28;20640;-64
2022/10/25 12:13:42;;;;;;;5.97;3.00;;;18.00;99.90;;;;;;5035173;28;20170;-65
2022/10/25 12:16:14;;;;;;;7.72;3.10;;;18.00;99.90;;;;;;5035545;28;20159;-64
2022/10/25 12:18:58;;;;;;;9.43;2.85;;;18.00;99.90;;;;;;5034738;28;20205;-64
2022/10/25 12:21:30;;;;;;;7.60;2.85;;;18.00;99.90;;;;;;5035168;28;20198;-64
2022/10/25 12:23:56;;;;;;;6.13;2.70;;;18.10;99.90;;;;;;5034701;28;20210;-64
2022/10/25 12:26:33;;;;;;;8.10;3.05;;;18.20;99.90;;;;;;5035308;28;20196;-64
2022/10/25 12:29:04;;;;;;;7.95;2.65;;;18.10;99.90;;;;;;5034493;28;20348;-64
2022/10/25 12:32:08;;;;;;;5.03;2.40;;;18.00;99.90;;;;;;5034944;28;20186;-64
2022/10/25 12:34:44;;;;;;;5.80;2.60;;;17.60;99.90;;;;;;5013493;28;20208;-64
2022/10/25 12:37:21;;;;;;;4.32;2.58;;;17.70;99.90;;;;;;5034524;28;20164;-64
2022/10/25 12:39:47;;;;;;;5.25;2.83;;;17.70;99.90;;;;;;5034754;28;20187;-64
2022/10/25 12:42:39;;;;;;;4.68;2.70;;;17.80;99.90;;;;;;5033211;28;20175;-64
2022/10/25 12:45:15;;;;;;;7.60;2.65;;;17.80;99.90;;;;;;5032952;28;20234;-64
2022/10/25 12:48:05;;;;;;;5.93;2.53;;;17.70;99.90;;;;;;5034238;28;20258;-64
2022/10/25 12:51:07;;;;;;;6.72;2.78;;;17.90;99.90;;;;;;5034278;28;20159;-64
2022/10/25 12:54:10;;;;;;;4.93;2.53;;;18.00;99.90;;;;;;5034082;28;20179;-64
2022/10/25 12:56:53;;;;;;;6.35;2.55;;;17.90;99.90;;;;;;5034129;28;20193;-64
2022/10/25 12:59:24;;;;;;;7.45;2.50;;;17.80;99.90;;;;;;5034395;28;20254;-64
2022/10/25 13:01:56;;;;;;;5.72;2.58;;;17.70;99.90;;;;;;5034187;28;20232;-64
2022/10/25 13:04:44;;;;;;;5.03;2.80;;;17.60;99.90;;;;;;5033935;28;20245;-64
2022/10/25 13:07:12;;;;;;;4.93;3.38;;;17.30;99.90;;;;;;5032137;28;20180;-65